Time;durP1;ratioP1;P1;durP2;ratioP2;P2;SDS_P1;SDS_P2;PMS_P1;PMS_P2;Temp;Humidity;BMP_temperature;BMP_pressure;BME280_temperature;BME280_humidity;BME280_pressure;Samples;Min_cycle;Max_cycle;Signal;HPM_P1;HPM_P2
2021/05/30 00:01:58;;;;;;;47.92;29.98;;;8.30;99.90;;;;;;5096314;28;20461;-73
2021/05/30 00:04:23;;;;;;;47.50;29.20;;;8.20;99.90;;;;;;5096280;28;20035;-72
2021/05/30 00:06:49;;;;;;;45.05;29.60;;;8.20;99.90;;;;;;5095114;28;20020;-73
2021/05/30 00:09:15;;;;;;;48.17;30.45;;;8.20;99.90;;;;;;5095933;28;20518;-72
2021/05/30 00:11:40;;;;;;;45.88;30.30;;;8.20;99.90;;;;;;5094118;28;20040;-73
2021/05/30 00:14:07;;;;;;;45.95;29.33;;;8.10;99.90;;;;;;5095890;28;20506;-72
2021/05/30 00:16:33;;;;;;;52.47;32.05;;;8.10;99.90;;;;;;5095829;28;20024;-72
2021/05/30 00:19:00;;;;;;;53.28;33.08;;;8.00;99.90;;;;;;5096063;28;20024;-72
2021/05/30 00:21:26;;;;;;;56.95;34.83;;;8.10;99.90;;;;;;5096016;28;20016;-73
2021/05/30 00:23:52;;;;;;;53.50;33.28;;;8.10;99.90;;;;;;5095712;28;20085;-72
2021/05/30 00:26:18;;;;;;;51.78;31.88;;;8.10;99.90;;;;;;5095302;28;20024;-73
2021/05/30 00:28:44;;;;;;;52.70;32.58;;;8.10;99.90;;;;;;5095520;28;20465;-72
2021/05/30 00:31:09;;;;;;;49.25;29.65;;;8.10;99.90;;;;;;5095693;28;20036;-72
2021/05/30 00:33:35;;;;;;;49.65;30.17;;;8.00;99.90;;;;;;5095448;28;20056;-72
2021/05/30 00:36:00;;;;;;;53.40;30.90;;;8.00;99.90;;;;;;5092878;28;20027;-72
2021/05/30 00:38:26;;;;;;;49.13;29.92;;;7.90;99.90;;;;;;5095343;28;20077;-72
2021/05/30 00:40:53;;;;;;;47.78;31.17;;;7.90;99.90;;;;;;5095284;28;20062;-72
2021/05/30 00:43:19;;;;;;;51.08;31.90;;;7.90;99.90;;;;;;5094040;28;20039;-72
2021/05/30 00:45:46;;;;;;;56.42;32.65;;;7.90;99.90;;;;;;5095744;28;20032;-72
2021/05/30 00:48:11;;;;;;;56.25;32.58;;;7.80;99.90;;;;;;5095487;28;20024;-72
2021/05/30 00:50:37;;;;;;;54.97;33.90;;;7.80;99.90;;;;;;5095133;28;20031;-73
2021/05/30 00:53:03;;;;;;;58.03;34.33;;;7.80;99.90;;;;;;5094960;28;20385;-72
2021/05/30 00:55:29;;;;;;;64.18;35.28;;;7.80;99.90;;;;;;5095366;28;20020;-72
2021/05/30 00:57:55;;;;;;;59.10;34.95;;;7.70;99.90;;;;;;5095278;28;20028;-72
2021/05/30 01:00:21;;;;;;;55.30;33.08;;;7.70;99.90;;;;;;5095237;28;20074;-72
2021/05/30 01:02:46;;;;;;;55.47;33.58;;;7.70;99.90;;;;;;5095475;28;20074;-72
2021/05/30 01:05:12;;;;;;;63.33;36.58;;;7.70;99.90;;;;;;5093673;28;20400;-72
2021/05/30 01:07:41;;;;;;;67.18;38.20;;;7.70;99.90;;;;;;5095101;28;20028;-72
2021/05/30 01:10:26;;;;;;;69.93;39.83;;;7.70;99.90;;;;;;5094767;28;20020;-72
2021/05/30 01:12:52;;;;;;;78.75;43.45;;;7.70;99.90;;;;;;5094333;28;20044;-72
2021/05/30 01:15:19;;;;;;;72.63;40.75;;;7.70;99.90;;;;;;5094722;28;20023;-72
2021/05/30 01:17:46;;;;;;;67.75;39.13;;;7.70;99.90;;;;;;5094603;28;20354;-73
2021/05/30 01:20:15;;;;;;;79.25;44.25;;;7.70;99.90;;;;;;5093451;28;20032;-72
2021/05/30 01:22:42;;;;;;;75.68;43.33;;;7.70;99.90;;;;;;5094830;28;20350;-72
2021/05/30 01:25:10;;;;;;;65.85;39.25;;;7.70;99.90;;;;;;5092955;28;20027;-72
2021/05/30 01:27:37;;;;;;;71.25;40.60;;;7.60;99.90;;;;;;5094725;28;20016;-72
2021/05/30 01:30:05;;;;;;;69.40;39.83;;;7.50;99.90;;;;;;5094700;28;20342;-72
2021/05/30 01:32:31;;;;;;;71.07;41.65;;;7.50;99.90;;;;;;5094593;28;20021;-72
2021/05/30 01:34:57;;;;;;;72.30;39.67;;;7.50;99.90;;;;;;5094596;28;20103;-72
2021/05/30 01:37:22;;;;;;;76.22;42.65;;;7.50;99.90;;;;;;5094557;28;20032;-72
2021/05/30 01:39:48;;;;;;;70.82;42.90;;;7.50;99.90;;;;;;5094231;28;20122;-72
2021/05/30 01:42:14;;;;;;;78.40;42.95;;;7.50;99.90;;;;;;5094482;28;20031;-73
2021/05/30 01:44:39;;;;;;;75.97;41.90;;;7.50;99.90;;;;;;5094510;28;20381;-72
2021/05/30 01:47:05;;;;;;;80.22;42.97;;;7.40;99.90;;;;;;5094138;28;20028;-72
2021/05/30 01:49:30;;;;;;;74.15;41.72;;;7.50;99.90;;;;;;5092997;28;20039;-72
2021/05/30 01:51:56;;;;;;;82.43;43.58;;;7.40;99.90;;;;;;5093989;28;20354;-72
2021/05/30 01:54:21;;;;;;;75.10;41.53;;;7.40;99.90;;;;;;5094337;28;20090;-72
2021/05/30 01:57:05;;;;;;;72.22;41.75;;;7.40;99.90;;;;;;5094296;28;20464;-72
2021/05/30 01:59:30;;;;;;;73.25;41.70;;;7.40;99.90;;;;;;5093035;28;20020;-72
2021/05/30 02:01:59;;;;;;;77.68;43.65;;;7.30;99.90;;;;;;5094484;28;20024;-72
2021/05/30 02:04:29;;;;;;;80.18;43.35;;;7.30;99.90;;;;;;5094218;28;20016;-72
2021/05/30 02:06:55;;;;;;;78.53;43.80;;;7.30;99.90;;;;;;5093193;28;20365;-72
2021/05/30 02:09:22;;;;;;;76.32;42.42;;;7.30;99.90;;;;;;5094201;28;20028;-72
2021/05/30 02:11:47;;;;;;;74.15;41.80;;;7.20;99.90;;;;;;5093500;28;20051;-72
2021/05/30 02:14:14;;;;;;;75.50;41.20;;;7.20;99.90;;;;;;5094379;28;20020;-72
2021/05/30 02:16:41;;;;;;;71.43;39.85;;;7.10;99.90;;;;;;5094139;28;20021;-72
2021/05/30 02:19:08;;;;;;;72.47;42.22;;;7.10;99.90;;;;;;5094076;28;20020;-72
2021/05/30 02:21:45;;;;;;;81.43;44.33;;;7.10;99.90;;;;;;5093522;28;20035;-72
2021/05/30 02:24:12;;;;;;;77.53;42.55;;;7.10;99.90;;;;;;5093773;28;20037;-72
2021/05/30 02:26:38;;;;;;;72.68;41.13;;;7.10;99.90;;;;;;5094053;28;20024;-72
2021/05/30 02:29:05;;;;;;;71.00;41.15;;;7.00;99.90;;;;;;5093959;28;20050;-72
2021/05/30 02:31:31;;;;;;;73.60;40.83;;;7.00;99.90;;;;;;5093927;28;20024;-72
2021/05/30 02:33:57;;;;;;;78.65;42.67;;;7.00;99.90;;;;;;5093401;28;20020;-72
2021/05/30 02:36:23;;;;;;;75.45;42.28;;;7.00;99.90;;;;;;5093669;28;20032;-72
2021/05/30 02:38:49;;;;;;;73.28;40.10;;;7.00;99.90;;;;;;5093637;28;20031;-72
2021/05/30 02:41:15;;;;;;;84.45;43.75;;;6.90;99.90;;;;;;5093870;28;20020;-72
2021/05/30 02:43:40;;;;;;;79.85;43.15;;;6.90;99.90;;;;;;5093296;28;20047;-72
2021/05/30 02:46:06;;;;;;;85.65;44.63;;;6.90;99.90;;;;;;5093539;28;20142;-72
2021/05/30 02:48:32;;;;;;;86.75;44.60;;;6.90;99.90;;;;;;5093777;28;20169;-72
2021/05/30 02:50:59;;;;;;;91.55;46.67;;;7.00;99.90;;;;;;5093767;28;20027;-72
2021/05/30 02:53:28;;;;;;;90.65;46.83;;;7.00;99.90;;;;;;5093691;28;20027;-72
2021/05/30 02:55:54;;;;;;;86.55;45.25;;;7.00;99.90;;;;;;5093459;28;20043;-72
2021/05/30 02:58:20;;;;;;;83.32;45.13;;;6.90;99.90;;;;;;5094583;28;20020;-72
2021/05/30 03:00:45;;;;;;;79.60;42.78;;;7.00;99.90;;;;;;5096984;28;20367;-72
2021/05/30 03:03:11;;;;;;;77.50;42.92;;;6.90;99.90;;;;;;5095763;28;20038;-72
2021/05/30 03:05:37;;;;;;;83.32;44.25;;;6.90;99.90;;;;;;5097187;28;20032;-72
2021/05/30 03:08:03;;;;;;;99.53;47.95;;;6.90;99.90;;;;;;5096844;28;20374;-72
2021/05/30 03:10:28;;;;;;;106.60;51.78;;;6.90;99.90;;;;;;5096799;28;20481;-72
2021/05/30 03:12:54;;;;;;;103.47;51.55;;;7.20;99.90;;;;;;5096641;28;20101;-72
2021/05/30 03:15:20;;;;;;;94.38;48.33;;;7.30;99.90;;;;;;5097269;28;20035;-72
2021/05/30 03:17:45;;;;;;;94.95;47.75;;;7.30;99.90;;;;;;5097269;28;20020;-72
2021/05/30 03:20:11;;;;;;;87.72;45.22;;;7.20;99.90;;;;;;5097146;28;20453;-72
2021/05/30 03:22:37;;;;;;;81.25;44.00;;;7.20;99.90;;;;;;5096889;28;20020;-72
2021/05/30 03:25:04;;;;;;;80.32;43.17;;;7.10;99.90;;;;;;5095920;28;20110;-72
2021/05/30 03:27:29;;;;;;;80.70;43.55;;;7.00;99.90;;;;;;5096514;28;20474;-72
2021/05/30 03:29:56;;;;;;;73.55;39.40;;;7.00;99.90;;;;;;5096993;28;20036;-72
2021/05/30 03:32:23;;;;;;;80.65;43.00;;;6.90;99.90;;;;;;5096923;28;20032;-72
2021/05/30 03:34:49;;;;;;;78.63;42.90;;;6.90;99.90;;;;;;5097115;28;20028;-72
2021/05/30 03:37:14;;;;;;;73.82;42.10;;;6.90;99.90;;;;;;5096596;28;20020;-72
2021/05/30 03:39:42;;;;;;;82.90;43.70;;;6.90;99.90;;;;;;5096807;28;20020;-73
2021/05/30 03:42:13;;;;;;;82.63;43.65;;;6.90;99.90;;;;;;5096493;28;20495;-72
2021/05/30 03:44:39;;;;;;;77.82;42.90;;;6.90;99.90;;;;;;5096222;28;20107;-72
2021/05/30 03:47:05;;;;;;;75.22;43.28;;;6.90;99.90;;;;;;5096682;28;20081;-72
2021/05/30 03:49:30;;;;;;;77.35;43.33;;;7.00;99.90;;;;;;5095116;28;20107;-72
2021/05/30 03:51:56;;;;;;;74.20;39.97;;;7.00;99.90;;;;;;5096516;28;20024;-72
2021/05/30 03:54:21;;;;;;;70.25;39.28;;;7.00;99.90;;;;;;5096587;28;20024;-72
2021/05/30 03:56:47;;;;;;;71.88;38.22;;;7.00;99.90;;;;;;5096502;28;20365;-72
2021/05/30 03:59:13;;;;;;;66.85;37.53;;;7.00;99.90;;;;;;5096468;28;20028;-72
2021/05/30 04:01:38;;;;;;;61.33;36.13;;;7.00;99.90;;;;;;5094940;28;20461;-72
2021/05/30 04:04:04;;;;;;;56.75;34.38;;;6.90;99.90;;;;;;5096312;28;20035;-72
2021/05/30 04:06:30;;;;;;;63.88;35.70;;;6.80;99.90;;;;;;5096044;28;20412;-72
2021/05/30 04:08:55;;;;;;;68.63;38.08;;;6.80;99.90;;;;;;5095584;28;20384;-72
2021/05/30 04:11:21;;;;;;;74.43;40.72;;;6.90;99.90;;;;;;5095857;28;20047;-72
2021/05/30 04:13:47;;;;;;;73.47;39.78;;;7.00;99.90;;;;;;5095873;28;20043;-72
2021/05/30 04:16:12;;;;;;;76.35;43.05;;;7.10;99.90;;;;;;5095609;28;20532;-72
2021/05/30 04:18:38;;;;;;;71.38;40.17;;;7.20;99.90;;;;;;5094614;28;20096;-72
2021/05/30 04:21:04;;;;;;;70.45;40.45;;;7.40;99.90;;;;;;5094174;28;20469;-72
2021/05/30 04:23:31;;;;;;;64.78;37.63;;;7.60;99.90;;;;;;5096001;28;20024;-72
2021/05/30 04:25:57;;;;;;;59.80;36.42;;;7.90;99.90;;;;;;5095950;28;20040;-72
2021/05/30 04:28:23;;;;;;;55.30;34.47;;;8.10;99.90;;;;;;5095908;28;20024;-72
2021/05/30 04:30:49;;;;;;;59.50;33.30;;;8.20;99.90;;;;;;5095889;28;20039;-72
2021/05/30 04:33:14;;;;;;;49.53;31.35;;;8.30;99.90;;;;;;5095726;28;20090;-72
2021/05/30 04:35:40;;;;;;;44.80;28.40;;;8.80;99.90;;;;;;5095780;28;20334;-72
2021/05/30 04:38:05;;;;;;;33.92;23.15;;;9.70;99.90;;;;;;5095667;28;20427;-72
2021/05/30 04:40:32;;;;;;;28.90;20.55;;;10.70;99.90;;;;;;5095661;28;20533;-70
2021/05/30 04:42:57;;;;;;;30.08;19.65;;;11.80;99.90;;;;;;5095622;28;20474;-70
2021/05/30 04:45:33;;;;;;;26.38;18.45;;;12.90;99.90;;;;;;5095518;28;20107;-70
2021/05/30 04:47:59;;;;;;;23.23;18.92;;;14.00;99.90;;;;;;5094928;28;20103;-70
2021/05/30 04:50:24;;;;;;;24.10;17.40;;;14.30;99.90;;;;;;5095203;28;20462;-70
2021/05/30 04:52:50;;;;;;;23.88;18.10;;;15.10;99.90;;;;;;5095345;28;20032;-71
2021/05/30 04:55:15;;;;;;;20.48;17.10;;;15.40;99.90;;;;;;5095345;28;20024;-71
2021/05/30 04:57:44;;;;;;;22.75;17.23;;;15.80;99.90;;;;;;5095319;28;20350;-70
2021/05/30 05:00:11;;;;;;;20.92;16.83;;;15.60;99.90;;;;;;5095000;28;20024;-71
2021/05/30 05:02:36;;;;;;;17.60;15.70;;;15.80;99.90;;;;;;5095221;28;20020;-71
2021/05/30 05:05:03;;;;;;;21.25;17.40;;;15.70;99.90;;;;;;5095222;28;20024;-71
2021/05/30 05:07:28;;;;;;;20.13;16.45;;;16.20;99.90;;;;;;5094587;28;20053;-71
2021/05/30 05:09:54;;;;;;;21.42;16.90;;;16.40;99.90;;;;;;5093833;28;20119;-71
2021/05/30 05:12:20;;;;;;;20.35;15.82;;;15.90;99.90;;;;;;5094434;28;20040;-70
2021/05/30 05:14:45;;;;;;;19.25;15.77;;;16.60;99.90;;;;;;5094448;28;20020;-71
2021/05/30 05:17:11;;;;;;;20.38;16.38;;;16.60;99.90;;;;;;5094958;28;20050;-71
2021/05/30 05:19:36;;;;;;;18.92;15.40;;;16.40;99.90;;;;;;5093768;28;20058;-71
2021/05/30 05:22:02;;;;;;;21.35;17.08;;;15.90;99.90;;;;;;5094059;28;20246;-71
2021/05/30 05:24:27;;;;;;;18.40;16.45;;;15.80;99.90;;;;;;5094830;28;20113;-71
2021/05/30 05:26:53;;;;;;;18.55;15.77;;;16.20;99.90;;;;;;5094246;28;20390;-71
2021/05/30 05:29:18;;;;;;;23.50;16.85;;;15.70;99.90;;;;;;5094451;28;20054;-71
2021/05/30 05:31:44;;;;;;;23.58;16.63;;;16.30;99.90;;;;;;5094082;28;20389;-71
2021/05/30 05:34:09;;;;;;;19.55;16.92;;;17.00;99.90;;;;;;5094379;28;20024;-71
2021/05/30 05:36:35;;;;;;;19.40;16.63;;;17.90;99.90;;;;;;5093061;28;20024;-71
2021/05/30 05:39:02;;;;;;;21.40;17.08;;;17.50;99.90;;;;;;5093187;28;20044;-71
2021/05/30 05:41:28;;;;;;;18.63;16.05;;;17.70;99.90;;;;;;5094361;28;20069;-71
2021/05/30 05:43:53;;;;;;;17.30;15.43;;;18.50;99.90;;;;;;5094257;28;20028;-71
2021/05/30 05:46:19;;;;;;;18.50;15.98;;;18.80;99.90;;;;;;5094495;28;20453;-71
2021/05/30 05:48:45;;;;;;;19.70;16.83;;;18.30;99.90;;;;;;5094473;28;20031;-71
2021/05/30 05:51:10;;;;;;;19.73;16.13;;;18.30;99.90;;;;;;5094333;28;20465;-71
2021/05/30 05:53:36;;;;;;;17.40;15.30;;;18.80;99.90;;;;;;5094122;28;20354;-71
2021/05/30 05:56:02;;;;;;;19.55;16.05;;;19.20;99.90;;;;;;5094301;28;20095;-71
2021/05/30 05:58:27;;;;;;;18.23;15.52;;;19.20;99.90;;;;;;5094036;28;20047;-71
2021/05/30 06:00:53;;;;;;;17.48;14.60;;;19.90;99.90;;;;;;5094106;28;20035;-71
2021/05/30 06:03:18;;;;;;;22.30;15.40;;;19.50;99.90;;;;;;5093989;28;20028;-71
2021/05/30 06:05:44;;;;;;;18.20;15.82;;;19.30;99.90;;;;;;5093049;28;20460;-71
2021/05/30 06:08:09;;;;;;;17.88;14.60;;;20.30;99.90;;;;;;5094196;28;20039;-71
2021/05/30 06:10:35;;;;;;;17.05;14.95;;;20.90;99.90;;;;;;5093589;28;20027;-71
2021/05/30 06:13:03;;;;;;;15.85;14.05;;;19.90;99.90;;;;;;5093383;28;20047;-71
2021/05/30 06:15:29;;;;;;;19.30;14.90;;;20.80;99.90;;;;;;5093878;28;20024;-71
2021/05/30 06:17:57;;;;;;;15.93;14.23;;;20.90;99.90;;;;;;5094053;28;20027;-71
2021/05/30 06:20:25;;;;;;;18.67;14.38;;;21.00;99.90;;;;;;5093553;28;20098;-71
2021/05/30 06:22:50;;;;;;;18.33;15.65;;;21.20;99.90;;;;;;5092663;28;20381;-71
2021/05/30 06:25:16;;;;;;;18.77;15.23;;;21.00;99.90;;;;;;5093463;28;20020;-71
2021/05/30 06:27:42;;;;;;;18.33;14.68;;;20.20;99.90;;;;;;5093808;28;20020;-71
2021/05/30 06:30:08;;;;;;;16.90;15.10;;;20.40;99.90;;;;;;5094027;28;20077;-71
2021/05/30 06:32:34;;;;;;;16.67;14.23;;;21.10;99.90;;;;;;5093678;28;20543;-71
2021/05/30 06:35:00;;;;;;;16.98;15.18;;;20.90;99.90;;;;;;5097712;28;20028;-71
2021/05/30 06:37:25;;;;;;;16.45;14.75;;;19.90;99.90;;;;;;5098040;28;20476;-71
2021/05/30 06:39:51;;;;;;;18.23;15.43;;;19.90;99.90;;;;;;5097970;28;20031;-72
2021/05/30 06:42:17;;;;;;;21.92;15.73;;;20.50;99.90;;;;;;5097384;28;20024;-71
2021/05/30 06:44:42;;;;;;;18.38;15.10;;;21.00;99.90;;;;;;5096780;28;20039;-71
2021/05/30 06:47:08;;;;;;;17.00;14.65;;;20.70;99.90;;;;;;5097575;28;20029;-71
2021/05/30 06:49:34;;;;;;;17.42;13.45;;;21.00;99.90;;;;;;5097205;28;20024;-71
2021/05/30 06:51:59;;;;;;;17.13;14.32;;;21.60;99.90;;;;;;5097462;28;20024;-72
2021/05/30 06:54:25;;;;;;;15.75;13.95;;;22.10;99.90;;;;;;5097435;28;20047;-71
2021/05/30 06:56:50;;;;;;;15.05;12.80;;;22.30;99.90;;;;;;5097115;28;20418;-71
2021/05/30 06:59:16;;;;;;;16.35;13.90;;;22.90;99.90;;;;;;5096454;28;20073;-72
2021/05/30 07:01:42;;;;;;;15.50;13.75;;;23.00;99.90;;;;;;5097539;28;20067;-72
2021/05/30 07:04:08;;;;;;;17.00;14.60;;;22.10;99.90;;;;;;5097256;28;20020;-71
2021/05/30 07:06:33;;;;;;;17.35;14.52;;;22.40;99.90;;;;;;5096887;28;20359;-71
2021/05/30 07:09:00;;;;;;;16.77;14.98;;;21.60;99.90;;;;;;5097437;28;20016;-71
2021/05/30 07:11:26;;;;;;;15.63;13.93;;;21.80;99.90;;;;;;5095264;28;20044;-71
2021/05/30 07:13:52;;;;;;;16.08;14.38;;;22.30;99.90;;;;;;5097278;28;20027;-71
2021/05/30 07:16:18;;;;;;;18.20;14.60;;;22.80;99.90;;;;;;5097236;28;20024;-72
2021/05/30 07:18:43;;;;;;;17.17;14.57;;;22.80;99.90;;;;;;5097158;28;20024;-71
2021/05/30 07:21:09;;;;;;;16.23;13.85;;;23.10;99.90;;;;;;5097129;28;20028;-72
2021/05/30 07:23:36;;;;;;;16.42;12.05;;;22.80;99.90;;;;;;5096786;28;20030;-71
2021/05/30 07:26:02;;;;;;;14.20;12.80;;;23.50;99.90;;;;;;5096544;28;20024;-71
2021/05/30 07:28:28;;;;;;;15.73;13.02;;;23.80;99.70;;;;;;5097089;28;20051;-72
2021/05/30 07:30:53;;;;;;;15.65;12.57;;;22.80;99.90;;;;;;5096426;28;20027;-73
2021/05/30 07:33:19;;;;;;;13.93;11.63;;;23.30;99.20;;;;;;5095370;28;20016;-72
2021/05/30 07:35:45;;;;;;;11.68;10.43;;;23.10;99.20;;;;;;5096876;28;20027;-71
2021/05/30 07:38:10;;;;;;;12.32;10.18;;;23.90;98.00;;;;;;5095694;28;20038;-71
2021/05/30 07:40:36;;;;;;;10.55;9.50;;;23.80;97.20;;;;;;5095038;28;20021;-71
2021/05/30 07:43:02;;;;;;;9.75;7.97;;;24.00;94.90;;;;;;5096547;28;20043;-72
2021/05/30 07:45:29;;;;;;;11.00;9.75;;;24.20;93.60;;;;;;5096247;28;20078;-71
2021/05/30 07:47:55;;;;;;;12.60;9.77;;;24.20;92.90;;;;;;5096684;28;20471;-72
2021/05/30 07:50:21;;;;;;;11.70;9.52;;;23.90;94.90;;;;;;5096363;28;20045;-71
2021/05/30 07:52:47;;;;;;;14.32;11.02;;;24.10;92.70;;;;;;5096177;28;20024;-71
2021/05/30 07:55:13;;;;;;;13.65;11.00;;;23.70;92.20;;;;;;5096551;28;20198;-72
2021/05/30 07:57:39;;;;;;;13.02;10.57;;;24.10;91.50;;;;;;5096512;28;20028;-71
2021/05/30 08:00:09;;;;;;;14.00;9.85;;;24.10;91.00;;;;;;5077727;28;20027;-71
2021/05/30 08:02:35;;;;;;;11.95;9.48;;;23.40;93.30;;;;;;5096406;28;20025;-71
2021/05/30 08:05:01;;;;;;;10.85;9.57;;;23.20;94.00;;;;;;5096028;28;20032;-71
2021/05/30 08:07:27;;;;;;;11.77;10.13;;;23.70;94.70;;;;;;5094869;28;20107;-71
2021/05/30 08:09:52;;;;;;;13.32;10.32;;;24.00;92.00;;;;;;5096264;28;20103;-72
2021/05/30 08:12:18;;;;;;;12.40;9.63;;;23.30;93.10;;;;;;5095613;28;20519;-71
2021/05/30 08:14:43;;;;;;;11.25;9.98;;;23.50;93.70;;;;;;5096177;28;20024;-71
2021/05/30 08:17:09;;;;;;;11.05;9.82;;;24.00;92.30;;;;;;5096101;28;20024;-71
2021/05/30 08:19:35;;;;;;;11.32;9.23;;;24.60;91.10;;;;;;5095809;28;20017;-71
2021/05/30 08:22:02;;;;;;;11.20;9.82;;;25.10;91.20;;;;;;5095450;28;20032;-72
2021/05/30 08:24:27;;;;;;;13.45;10.85;;;24.90;92.20;;;;;;5095649;28;20028;-71
2021/05/30 08:26:55;;;;;;;14.18;9.48;;;25.20;89.60;;;;;;5095559;28;20032;-72
2021/05/30 08:29:22;;;;;;;10.55;9.45;;;24.50;91.10;;;;;;5094266;28;20031;-71
2021/05/30 08:31:49;;;;;;;11.23;9.63;;;25.10;88.90;;;;;;5095661;28;20024;-71
2021/05/30 08:34:16;;;;;;;10.65;9.52;;;24.60;87.90;;;;;;5095116;28;20024;-71
2021/05/30 08:36:42;;;;;;;11.43;9.68;;;24.40;88.30;;;;;;5095169;28;20111;-71
2021/05/30 08:39:08;;;;;;;12.30;9.32;;;24.10;90.40;;;;;;5095582;28;20027;-71
2021/05/30 08:41:33;;;;;;;10.05;8.50;;;23.80;89.90;;;;;;5095321;28;20465;-71
2021/05/30 08:43:59;;;;;;;9.32;8.30;;;24.10;91.40;;;;;;5095236;28;20034;-71
2021/05/30 08:46:29;;;;;;;10.48;8.27;;;24.40;85.80;;;;;;5095394;28;20036;-71
2021/05/30 08:48:56;;;;;;;8.05;7.30;;;24.20;91.90;;;;;;5095394;28;20099;-71
2021/05/30 08:51:21;;;;;;;10.07;8.88;;;24.80;92.20;;;;;;5093971;28;20023;-71
2021/05/30 08:53:47;;;;;;;10.63;8.32;;;25.20;86.10;;;;;;5095363;28;20032;-71
2021/05/30 08:56:13;;;;;;;8.52;7.65;;;24.90;91.10;;;;;;5094498;28;20118;-71
2021/05/30 08:58:44;;;;;;;11.00;7.60;;;25.10;85.30;;;;;;5093430;28;20020;-73
2021/05/30 09:01:21;;;;;;;9.07;8.00;;;25.90;81.10;;;;;;5094969;28;20016;-72
2021/05/30 09:04:06;;;;;;;10.30;8.52;;;25.40;82.40;;;;;;5094098;28;20048;-73
2021/05/30 09:06:33;;;;;;;9.23;7.13;;;25.50;84.10;;;;;;5094830;28;20024;-72
2021/05/30 09:08:59;;;;;;;7.55;6.82;;;25.50;82.70;;;;;;5093304;28;20024;-72
2021/05/30 09:11:48;;;;;;;8.05;6.40;;;26.40;79.30;;;;;;5094645;28;20075;-71
2021/05/30 09:17:01;;;;;;;8.07;6.35;;;26.30;73.10;;;;;;5112116;27;20284;-71
2021/05/30 09:19:47;;;;;;;5.85;4.93;;;25.90;69.40;;;;;;5110350;28;20047;-71
2021/05/30 09:22:34;;;;;;;7.63;5.78;;;25.70;70.00;;;;;;5111664;28;20020;-73
2021/05/30 09:25:20;;;;;;;7.72;5.88;;;25.90;70.30;;;;;;5111729;28;20449;-72
2021/05/30 09:27:50;;;;;;;8.68;6.35;;;26.70;70.00;;;;;;5111129;28;20032;-72
2021/05/30 09:30:22;;;;;;;8.48;6.82;;;26.30;67.30;;;;;;5111648;28;20484;-72
2021/05/30 09:33:09;;;;;;;7.28;5.75;;;26.30;65.80;;;;;;5109687;28;20122;-72
2021/05/30 09:38:25;;;;;;;5.45;4.95;;;25.90;69.60;;;;;;5112067;27;20404;-72
2021/05/30 09:40:53;;;;;;;5.50;5.00;;;27.00;65.40;;;;;;5111887;28;20035;-72
2021/05/30 09:43:21;;;;;;;6.85;4.60;;;27.50;59.40;;;;;;5111338;28;20350;-73
2021/05/30 09:46:07;;;;;;;5.75;5.22;;;28.00;54.60;;;;;;5111771;28;20020;-73
2021/05/30 09:48:36;;;;;;;6.13;5.53;;;27.80;60.00;;;;;;5111714;28;20063;-73
2021/05/30 09:51:29;;;;;;;6.60;5.80;;;27.50;58.30;;;;;;5111714;28;20024;-72
2021/05/30 09:53:59;;;;;;;7.30;6.32;;;27.50;61.40;;;;;;5111576;28;20016;-73
2021/05/30 09:56:43;;;;;;;7.10;5.38;;;27.00;59.20;;;;;;5110943;28;20061;-73
2021/05/30 09:59:12;;;;;;;6.93;5.57;;;27.50;61.20;;;;;;5111474;28;20012;-72
2021/05/30 10:02:02;;;;;;;6.50;5.57;;;27.40;60.50;;;;;;5111262;28;20035;-72
2021/05/30 10:04:30;;;;;;;6.05;5.20;;;27.20;59.70;;;;;;5111177;28;20012;-73
2021/05/30 10:06:57;;;;;;;5.60;5.10;;;27.20;61.20;;;;;;5111390;28;20020;-72
2021/05/30 10:09:25;;;;;;;7.55;5.70;;;27.90;58.50;;;;;;5109624;28;20028;-71
2021/05/30 10:11:51;;;;;;;5.43;4.97;;;27.80;55.70;;;;;;5109741;28;20027;-72
2021/05/30 10:14:17;;;;;;;6.97;5.07;;;27.60;56.30;;;;;;5111272;28;20426;-72
2021/05/30 10:16:43;;;;;;;5.95;4.45;;;27.60;58.70;;;;;;5110913;28;20591;-72
2021/05/30 10:19:16;;;;;;;6.80;4.40;;;28.00;54.40;;;;;;5109982;28;20020;-72
2021/05/30 10:21:45;;;;;;;5.03;4.53;;;28.10;51.30;;;;;;5111121;28;20403;-72
2021/05/30 10:24:12;;;;;;;6.90;5.30;;;27.50;55.10;;;;;;5110544;28;20472;-72
2021/05/30 10:26:38;;;;;;;5.50;4.40;;;25.60;54.30;;;;;;5111081;28;20035;-71
2021/05/30 10:29:14;;;;;;;6.75;5.00;;;24.90;56.70;;;;;;5110738;28;20023;-72
2021/05/30 10:31:43;;;;;;;6.60;5.20;;;25.70;61.10;;;;;;5110744;28;20179;-72
2021/05/30 10:39:39;;;;;;;5.30;4.40;;;26.20;55.10;;;;;;5091891;28;20352;-72
2021/05/30 10:42:25;;;;;;;5.45;4.40;;;26.60;51.90;;;;;;5091583;28;20028;-72
2021/05/30 10:44:55;;;;;;;5.20;4.35;;;25.90;52.80;;;;;;5090107;28;20031;-72
2021/05/30 10:50:20;;;;;;;6.65;5.93;;;23.80;59.30;;;;;;5111432;27;20443;-72
2021/05/30 10:52:47;;;;;;;5.90;5.18;;;23.80;62.90;;;;;;5110490;28;20487;-72
2021/05/30 10:55:17;;;;;;;7.43;6.22;;;23.40;63.50;;;;;;5111427;28;20059;-72
2021/05/30 10:57:48;;;;;;;7.60;5.43;;;23.60;62.50;;;;;;5111847;28;20012;-72
2021/05/30 11:03:06;;;;;;;4.30;3.55;;;23.50;62.20;;;;;;5071590;28;20411;-71
2021/05/30 11:05:56;;;;;;;4.40;3.42;;;23.90;58.50;;;;;;5071067;28;20023;-71
2021/05/30 11:08:34;;;;;;;4.57;4.15;;;23.50;57.40;;;;;;5070716;28;20017;-71
2021/05/30 11:11:24;;;;;;;5.05;4.18;;;23.20;57.20;;;;;;5071029;28;20044;-72
2021/05/30 11:13:56;;;;;;;4.85;3.70;;;23.20;64.80;;;;;;5069335;28;20025;-72
2021/05/30 11:16:26;;;;;;;6.07;3.60;;;23.40;58.70;;;;;;5070600;28;20382;-72
2021/05/30 11:18:59;;;;;;;5.22;3.85;;;23.00;58.50;;;;;;5070772;28;20017;-72
2021/05/30 11:21:31;;;;;;;6.38;3.83;;;23.40;58.50;;;;;;5070888;28;20109;-72
2021/05/30 11:23:59;;;;;;;4.18;3.33;;;23.10;56.90;;;;;;5070883;28;20040;-72
2021/05/30 11:26:25;;;;;;;4.28;3.85;;;23.10;59.90;;;;;;5070941;28;20024;-72
2021/05/30 11:28:50;;;;;;;7.30;4.28;;;23.40;62.20;;;;;;5070840;28;20016;-71
2021/05/30 11:31:16;;;;;;;7.63;4.22;;;23.30;59.70;;;;;;5069368;28;20366;-71
2021/05/30 11:33:45;;;;;;;4.60;4.13;;;23.60;56.20;;;;;;5070730;28;20471;-71
2021/05/30 11:36:14;;;;;;;4.18;3.20;;;23.10;58.10;;;;;;5070447;28;20032;-71
2021/05/30 11:38:51;;;;;;;4.68;3.92;;;22.70;56.20;;;;;;5069104;28;20029;-71
2021/05/30 11:41:24;;;;;;;4.70;3.50;;;22.70;57.80;;;;;;5070299;28;20028;-71
2021/05/30 11:44:11;;;;;;;6.10;5.03;;;22.70;53.30;;;;;;5070572;28;20017;-71
2021/05/30 11:46:57;;;;;;;7.63;4.68;;;22.70;65.80;;;;;;5069920;28;20474;-71
2021/05/30 11:49:28;;;;;;;5.95;5.25;;;23.10;60.20;;;;;;5070480;28;20016;-71
2021/05/30 11:52:13;;;;;;;9.88;5.93;;;23.20;62.00;;;;;;5070401;28;20425;-71
2021/05/30 11:57:25;;;;;;;8.68;5.55;;;23.00;65.10;;;;;;5112046;27;20424;-71
2021/05/30 12:00:06;;;;;;;7.88;6.15;;;23.20;66.00;;;;;;5110039;28;20023;-71
2021/05/30 12:02:38;;;;;;;7.32;5.38;;;23.10;60.20;;;;;;5110298;28;20026;-71
2021/05/30 12:05:07;;;;;;;7.72;5.47;;;23.20;68.10;;;;;;5111515;28;20099;-71
2021/05/30 12:07:33;;;;;;;6.28;4.32;;;22.90;61.40;;;;;;5111520;28;20102;-71
2021/05/30 12:10:00;;;;;;;4.55;4.10;;;22.80;63.50;;;;;;5111075;28;20047;-71
2021/05/30 12:12:30;;;;;;;4.75;4.30;;;23.10;59.80;;;;;;5111384;28;20045;-71
2021/05/30 12:15:02;;;;;;;4.72;3.60;;;23.40;60.50;;;;;;5111373;28;20020;-71
2021/05/30 12:17:28;;;;;;;5.13;4.03;;;23.00;57.90;;;;;;5110208;28;20028;-71
2021/05/30 12:19:53;;;;;;;4.93;3.78;;;23.00;56.30;;;;;;5111137;28;20020;-71
2021/05/30 12:22:21;;;;;;;5.43;3.60;;;23.00;60.40;;;;;;5111488;28;20031;-71
2021/05/30 12:24:47;;;;;;;8.77;4.85;;;23.20;61.20;;;;;;5111150;28;20433;-71
2021/05/30 12:27:13;;;;;;;6.65;4.45;;;23.20;58.30;;;;;;5111415;28;20054;-71
2021/05/30 12:29:45;;;;;;;4.80;4.22;;;23.00;59.20;;;;;;5111046;28;20145;-71
2021/05/30 12:32:11;;;;;;;5.65;3.85;;;23.20;70.00;;;;;;5111286;28;20480;-71
2021/05/30 12:34:37;;;;;;;5.57;4.75;;;23.50;62.30;;;;;;5111227;28;20090;-71
2021/05/30 12:37:02;;;;;;;5.80;4.25;;;23.20;60.30;;;;;;5111070;28;20073;-71
2021/05/30 12:39:29;;;;;;;5.32;4.00;;;22.50;62.30;;;;;;5110562;28;20016;-72
2021/05/30 12:42:05;;;;;;;4.40;4.00;;;22.40;63.60;;;;;;5111137;28;20016;-72
2021/05/30 12:44:50;;;;;;;4.88;4.22;;;22.60;66.50;;;;;;5111137;28;20024;-71
2021/05/30 12:47:21;;;;;;;5.65;4.28;;;22.20;64.50;;;;;;5111032;28;20142;-71
2021/05/30 12:49:56;;;;;;;5.95;4.30;;;21.90;68.20;;;;;;5110908;28;20030;-71
2021/05/30 12:52:24;;;;;;;4.93;4.05;;;22.40;64.30;;;;;;5110076;28;20028;-71
2021/05/30 12:55:01;;;;;;;5.28;4.07;;;22.70;63.80;;;;;;5110501;28;20032;-71
2021/05/30 12:57:47;;;;;;;5.03;4.15;;;23.00;63.00;;;;;;5110717;28;20532;-71
2021/05/30 13:00:41;;;;;;;4.97;4.18;;;23.30;60.60;;;;;;5110526;28;20081;-71
2021/05/30 13:03:10;;;;;;;5.97;4.38;;;23.40;60.00;;;;;;5110102;28;20012;-71